Time;durP1;ratioP1;P1;durP2;ratioP2;P2;SDS_P1;SDS_P2;PMS_P1;PMS_P2;Temp;Humidity;BMP_temperature;BMP_pressure;BME280_temperature;BME280_humidity;BME280_pressure;Samples;Min_cycle;Max_cycle;Signal;HPM_P1;HPM_P2
2023/10/08 00:05:49;;;;;;;1.63;1.10;;;;;;;13.78;100.00;102244.44;10398299;28;20122;-66
2023/10/08 00:11:11;;;;;;;1.50;1.10;;;;;;;13.75;100.00;102247.13;10389856;28;20053;-67
2023/10/08 00:16:33;;;;;;;1.30;1.20;;;;;;;13.73;100.00;102267.97;10383840;28;20108;-67
2023/10/08 00:22:04;;;;;;;1.17;1.08;;;;;;;13.72;100.00;102276.66;10389528;28;20135;-66
2023/10/08 00:27:26;;;;;;;2.33;1.80;;;;;;;13.74;100.00;102276.59;10390301;28;20500;-67
2023/10/08 00:32:47;;;;;;;2.70;1.90;;;;;;;13.73;100.00;102280.97;10381889;28;20053;-67
2023/10/08 00:38:20;;;;;;;2.85;2.10;;;;;;;13.69;100.00;102281.91;10386438;28;20046;-66
2023/10/08 00:43:44;;;;;;;5.00;2.42;;;;;;;13.69;100.00;102296.66;10383455;28;20049;-66
2023/10/08 01:00:32;;;;;;;4.18;3.05;;;;;;;13.88;100.00;102303.25;10392980;28;20049;-66
2023/10/08 01:05:54;;;;;;;6.65;3.28;;;;;;;13.82;100.00;102304.22;10379649;28;20057;-66
2023/10/08 01:12:06;;;;;;;5.25;3.42;;;;;;;13.85;100.00;102298.94;10390928;28;20077;-66
2023/10/08 01:17:13;;;;;;;5.00;3.55;;;;;;;13.85;100.00;102292.88;10388971;28;20081;-66
2023/10/08 01:22:34;;;;;;;7.75;3.88;;;;;;;13.79;100.00;102295.63;10386665;28;20749;-66
2023/10/08 01:28:01;;;;;;;6.43;3.88;;;;;;;13.76;100.00;102298.25;10389725;28;20053;-66
2023/10/08 01:33:28;;;;;;;6.93;4.18;;;;;;;13.81;100.00;102286.00;10401436;28;20048;-66
2023/10/08 01:38:50;;;;;;;6.15;4.72;;;;;;;13.87;100.00;102293.69;10386886;28;20041;-66
2023/10/08 01:44:11;;;;;;;6.93;4.78;;;;;;;13.92;100.00;102310.06;10392378;28;20047;-66
2023/10/08 01:49:33;;;;;;;7.15;4.63;;;;;;;13.95;100.00;102304.81;10385228;28;20050;-66
2023/10/08 01:54:55;;;;;;;9.27;4.55;;;;;;;13.92;100.00;102276.22;10403588;28;20107;-66
2023/10/08 02:00:26;;;;;;;7.20;4.78;;;;;;;13.88;100.00;102278.03;10390390;28;20054;-66
2023/10/08 02:05:48;;;;;;;10.55;4.40;;;;;;;13.89;100.00;102302.34;10389273;28;20065;-66
2023/10/08 02:11:10;;;;;;;8.20;4.57;;;;;;;13.84;100.00;102312.81;10387338;28;20060;-66
2023/10/08 02:16:33;;;;;;;7.50;4.28;;;;;;;13.86;100.00;102312.81;10392793;28;20041;-66
2023/10/08 02:21:56;;;;;;;7.25;4.32;;;;;;;13.80;100.00;102320.72;10422098;28;20061;-66
2023/10/08 02:27:17;;;;;;;6.03;4.20;;;;;;;13.85;100.00;102303.28;10404607;28;20049;-66
2023/10/08 02:32:42;;;;;;;9.00;4.30;;;;;;;13.84;100.00;102319.78;10389642;28;20052;-66
2023/10/08 02:38:06;;;;;;;9.57;4.83;;;;;;;13.86;100.00;102333.63;10399335;28;20049;-66
2023/10/08 02:43:30;;;;;;;7.95;4.05;;;;;;;13.84;100.00;102345.81;10394275;28;20080;-66
2023/10/08 02:48:52;;;;;;;7.72;4.50;;;;;;;13.73;100.00;102334.75;10393747;28;20058;-66
2023/10/08 02:54:18;;;;;;;7.50;4.32;;;;;;;13.78;100.00;102358.94;10388783;28;20054;-67
2023/10/08 02:59:40;;;;;;;5.85;4.00;;;;;;;13.75;100.00;102369.41;10392115;28;20147;-66
2023/10/08 03:05:03;;;;;;;8.60;4.30;;;;;;;13.77;100.00;102362.44;10393253;28;20058;-66
2023/10/08 03:10:32;;;;;;;7.63;3.97;;;;;;;13.80;100.00;102367.56;10399053;28;20388;-66
2023/10/08 03:32:55;;;;;;;5.43;2.80;;;;;;;13.58;100.00;102402.66;10387455;28;20050;-67
2023/10/08 03:38:28;;;;;;;5.70;2.60;;;;;;;13.59;100.00;102409.56;10391873;28;20041;-66
2023/10/08 03:43:53;;;;;;;5.55;2.65;;;;;;;13.51;100.00;102417.50;10398273;28;20078;-66
2023/10/08 03:54:48;;;;;;;6.40;2.20;;;;;;;13.45;100.00;102412.41;10388598;28;20521;-66
2023/10/08 04:00:31;;;;;;;6.75;2.28;;;;;;;13.44;100.00;102422.84;10383469;28;20375;-66
2023/10/08 04:06:14;;;;;;;6.18;2.08;;;;;;;13.45;100.00;102432.34;10384102;28;20053;-66
2023/10/08 04:11:51;;;;;;;4.28;2.00;;;;;;;13.48;100.00;102429.72;10389069;28;20049;-67
2023/10/08 04:17:22;;;;;;;6.75;2.20;;;;;;;13.41;100.00;102425.47;10391092;28;20051;-67
2023/10/08 04:22:44;;;;;;;6.05;2.22;;;;;;;13.42;100.00;102454.06;10389173;28;20506;-67
2023/10/08 04:28:06;;;;;;;13.00;2.97;;;;;;;13.42;100.00;102450.59;10392563;28;20499;-67
2023/10/08 04:33:33;;;;;;;10.13;1.95;;;;;;;13.41;100.00;102439.34;10386286;28;20155;-66
2023/10/08 04:39:02;;;;;;;7.80;2.08;;;;;;;13.41;100.00;102447.13;10390277;28;20049;-67
2023/10/08 04:44:25;;;;;;;9.85;2.35;;;;;;;13.41;100.00;102467.06;10390464;28;20047;-66
2023/10/08 04:49:47;;;;;;;6.47;2.25;;;;;;;13.36;100.00;102461.09;10384605;28;20044;-66
2023/10/08 04:55:15;;;;;;;6.07;2.10;;;;;;;13.45;100.00;102489.56;10386406;28;20053;-66
2023/10/08 05:00:53;;;;;;;3.33;1.80;;;;;;;13.45;100.00;102502.56;10382098;28;20049;-66
2023/10/08 05:06:27;;;;;;;10.65;2.08;;;;;;;13.45;100.00;102508.63;10388765;28;20533;-66
2023/10/08 05:28:09;;;;;;;6.43;1.73;;;;;;;13.33;100.00;102481.94;10385050;28;20053;-66
2023/10/08 05:45:05;;;;;;;8.60;2.03;;;;;;;13.28;100.00;102491.53;10389892;28;20116;-67
2023/10/08 05:56:00;;;;;;;7.82;1.90;;;;;;;13.22;100.00;102512.44;10379737;28;20103;-66
2023/10/08 06:01:39;;;;;;;10.93;2.00;;;;;;;13.25;100.00;102512.38;10400939;28;20081;-66
2023/10/08 06:07:12;;;;;;;6.43;1.75;;;;;;;13.24;100.00;102516.72;10394333;28;20049;-66
2023/10/08 06:12:49;;;;;;;3.50;1.40;;;;;;;13.32;100.00;102514.00;10399440;28;20069;-66
2023/10/08 06:18:13;;;;;;;9.15;1.58;;;;;;;13.41;100.00;102521.69;10398501;28;20046;-66
2023/10/08 06:23:37;;;;;;;6.15;1.50;;;;;;;13.45;100.00;102508.63;10392164;28;20050;-66
2023/10/08 06:28:58;;;;;;;7.35;1.52;;;;;;;13.44;100.00;102508.66;10389889;28;20524;-66
2023/10/08 06:34:21;;;;;;;9.27;1.90;;;;;;;13.44;100.00;102524.25;10387900;28;20076;-66
2023/10/08 06:39:48;;;;;;;10.98;1.70;;;;;;;13.37;100.00;102548.63;10388885;28;20182;-66
2023/10/08 06:45:14;;;;;;;11.35;1.83;;;;;;;13.37;100.00;102548.63;10392788;28;20050;-66
2023/10/08 06:50:36;;;;;;;7.95;1.60;;;;;;;13.38;100.00;102545.13;10390820;28;20048;-66
2023/10/08 06:56:03;;;;;;;4.20;1.35;;;;;;;13.41;100.00;102555.50;10394428;28;20045;-66
2023/10/08 07:01:25;;;;;;;3.90;1.33;;;;;;;13.46;100.00;102570.16;10397964;28;20489;-66
2023/10/08 07:06:47;;;;;;;7.30;1.90;;;;;;;13.44;100.00;102586.69;10387904;28;20570;-66
2023/10/08 07:12:14;;;;;;;7.10;1.88;;;;;;;13.45;100.00;102583.19;10394446;28;20049;-66
2023/10/08 07:17:40;;;;;;;4.47;1.20;;;;;;;13.50;100.00;102560.56;10396255;28;20049;-66
2023/10/08 07:23:02;;;;;;;7.63;1.48;;;;;;;13.51;100.00;102562.28;10391426;28;20088;-66
2023/10/08 07:28:25;;;;;;;5.60;1.80;;;;;;;13.54;100.00;102609.06;10387429;28;20493;-66
2023/10/08 07:33:56;;;;;;;9.82;1.45;;;;;;;13.61;100.00;102601.16;10380456;28;20045;-65
2023/10/08 07:44:54;;;;;;;10.75;1.60;;;;;;;13.75;100.00;102603.56;10391302;28;20446;-66
2023/10/08 07:50:16;;;;;;;4.47;1.00;;;;;;;13.76;99.86;102606.16;10391679;28;20045;-66
2023/10/08 07:55:38;;;;;;;7.82;1.25;;;;;;;13.81;99.65;102598.25;10387483;28;20050;-66
2023/10/08 08:01:06;;;;;;;5.88;1.17;;;;;;;13.92;100.00;102617.16;10378821;28;20049;-66
2023/10/08 08:06:27;;;;;;;8.65;1.70;;;;;;;13.94;100.00;102634.50;10394007;28;20038;-66
2023/10/08 08:11:49;;;;;;;10.70;1.42;;;;;;;13.93;100.00;102629.31;10386352;28;20486;-67
2023/10/08 08:17:14;;;;;;;7.95;1.20;;;;;;;14.00;99.28;102631.81;10383719;28;20073;-67
2023/10/08 08:22:40;;;;;;;13.50;1.50;;;;;;;14.09;99.01;102643.81;10415961;28;20037;-67
2023/10/08 08:28:06;;;;;;;10.38;1.88;;;;;;;14.13;98.64;102648.09;10426853;28;20572;-66
2023/10/08 08:33:46;;;;;;;11.40;1.60;;;;;;;14.23;97.81;102667.06;10399141;28;20793;-66
2023/10/08 08:39:08;;;;;;;6.50;1.48;;;;;;;14.26;97.81;102680.88;10389023;28;20037;-66
2023/10/08 08:44:39;;;;;;;9.13;1.45;;;;;;;14.25;96.46;102686.97;10386531;28;20056;-66
2023/10/08 08:50:08;;;;;;;9.00;1.50;;;;;;;14.27;96.50;102677.41;10386396;28;20111;-66
2023/10/08 08:55:32;;;;;;;7.97;1.45;;;;;;;14.21;97.24;102655.81;10388957;28;20064;-66
2023/10/08 09:00:55;;;;;;;7.13;1.35;;;;;;;14.19;96.35;102655.81;10400605;28;20053;-66
2023/10/08 09:06:17;;;;;;;7.57;1.55;;;;;;;14.22;95.15;102675.72;10383547;28;20064;-66
2023/10/08 09:11:42;;;;;;;7.78;1.40;;;;;;;14.32;92.18;102665.19;10384753;28;20053;-66
2023/10/08 09:17:05;;;;;;;12.95;1.48;;;;;;;14.43;92.44;102668.47;10379812;28;20046;-66
2023/10/08 09:22:28;;;;;;;8.90;1.30;;;;;;;14.40;89.94;102665.94;10392599;28;20049;-66
2023/10/08 09:27:55;;;;;;;11.15;1.60;;;;;;;14.42;89.61;102692.81;10394342;28;20053;-66
2023/10/08 09:33:17;;;;;;;8.50;1.75;;;;;;;14.57;88.90;102734.25;10386593;28;20049;-66
2023/10/08 09:38:39;;;;;;;9.90;1.48;;;;;;;14.58;87.37;102693.41;10386154;28;20497;-66
2023/10/08 09:44:04;;;;;;;4.72;0.98;;;;;;;14.58;88.79;102703.81;10388436;28;20091;-65
2023/10/08 09:49:41;;;;;;;18.50;1.40;;;;;;;14.63;86.93;102687.22;10382189;28;20061;-65
2023/10/08 09:55:10;;;;;;;3.55;1.00;;;;;;;14.74;84.90;102710.53;10396782;28;20046;-65
2023/10/08 10:00:32;;;;;;;6.30;1.10;;;;;;;14.86;85.91;102695.53;10396234;28;20501;-65
2023/10/08 10:05:59;;;;;;;7.38;1.35;;;;;;;15.01;86.01;102702.22;10386251;28;20057;-65
2023/10/08 10:11:26;;;;;;;5.57;1.20;;;;;;;15.11;84.91;102702.03;10391006;28;20038;-65
2023/10/08 10:17:04;;;;;;;8.18;1.10;;;;;;;15.26;81.49;102692.16;10386820;28;20467;-65
2023/10/08 10:22:32;;;;;;;8.10;1.40;;;;;;;15.32;81.50;102668.59;10390482;28;20053;-65
2023/10/08 10:27:55;;;;;;;6.55;1.25;;;;;;;15.37;80.13;102729.34;10384453;28;20053;-65
2023/10/08 10:33:16;;;;;;;3.92;1.05;;;;;;;15.41;82.04;102725.81;10378103;28;20057;-65
2023/10/08 10:38:42;;;;;;;13.50;1.60;;;;;;;15.39;84.00;102717.13;10382748;28;20044;-65
2023/10/08 10:44:08;;;;;;;3.30;0.88;;;;;;;15.53;80.23;102699.50;10396405;28;20046;-65
2023/10/08 10:49:34;;;;;;;6.75;0.95;;;;;;;15.52;80.62;102703.88;10396227;28;20096;-65
2023/10/08 10:55:22;;;;;;;7.03;1.10;;;;;;;15.56;79.94;102728.16;10386304;28;20056;-65
2023/10/08 11:06:06;;;;;;;3.92;1.13;;;;;;;15.61;81.73;102721.94;10386726;28;20148;-66
2023/10/08 11:11:29;;;;;;;8.52;1.25;;;;;;;15.60;81.28;102712.38;10389373;28;20045;-65
2023/10/08 11:16:51;;;;;;;5.40;1.00;;;;;;;15.65;80.16;102707.06;10395155;28;20049;-65
2023/10/08 11:22:22;;;;;;;6.57;0.90;;;;;;;15.71;79.01;102679.06;10380021;28;20129;-65
2023/10/08 11:27:45;;;;;;;7.63;1.48;;;;;;;15.73;80.01;102676.47;10396791;28;20141;-66
2023/10/08 11:33:07;;;;;;;6.40;0.90;;;;;;;15.79;75.03;102668.47;10380266;28;20523;-65
2023/10/08 11:38:41;;;;;;;11.02;2.50;;;;;;;15.95;75.97;102672.50;10395670;28;20052;-65
2023/10/08 11:44:03;;;;;;;3.85;1.05;;;;;;;16.05;77.82;102660.91;10395721;28;20081;-65
2023/10/08 11:49:25;;;;;;;6.18;1.30;;;;;;;16.02;77.14;102625.28;10391264;28;20042;-65
2023/10/08 11:54:48;;;;;;;9.02;1.20;;;;;;;16.01;75.11;102605.28;10391097;28;20069;-65
2023/10/08 12:00:19;;;;;;;7.20;1.20;;;;;;;16.01;75.25;102607.03;10393683;28;20141;-66
2023/10/08 12:05:48;;;;;;;8.27;1.10;;;;;;;16.07;73.77;102617.34;10376165;28;20062;-66
2023/10/08 12:11:12;;;;;;;6.75;1.30;;;;;;;16.15;73.50;102631.09;10416987;28;20125;-67
2023/10/08 12:16:39;;;;;;;8.65;1.42;;;;;;;16.27;73.67;102650.81;10395989;28;20077;-64
2023/10/08 12:22:02;;;;;;;4.43;1.02;;;;;;;16.28;71.87;102676.91;10407299;28;20152;-66
2023/10/08 12:27:24;;;;;;;6.05;1.00;;;;;;;16.24;74.60;102664.84;10397747;28;20054;-66
2023/10/08 12:32:46;;;;;;;5.78;1.38;;;;;;;16.34;73.14;102653.25;10392644;28;20046;-66
2023/10/08 12:38:08;;;;;;;9.55;1.30;;;;;;;16.40;74.71;102655.72;10402439;28;20057;-64
2023/10/08 12:43:30;;;;;;;8.07;1.38;;;;;;;16.33;72.95;102669.84;10387229;28;20059;-66
2023/10/08 12:48:54;;;;;;;10.98;1.35;;;;;;;16.39;71.59;102655.75;10380885;28;20073;-66
2023/10/08 12:54:21;;;;;;;6.50;1.10;;;;;;;16.38;73.08;102660.13;10386692;28;20099;-65
2023/10/08 12:59:48;;;;;;;9.60;1.42;;;;;;;16.34;75.33;102613.19;10387286;28;20056;-65
2023/10/08 13:05:15;;;;;;;11.95;1.45;;;;;;;16.25;75.99;102631.69;10389592;28;20077;-65
2023/10/08 13:10:41;;;;;;;9.23;1.42;;;;;;;16.22;75.02;102645.72;10389495;28;20610;-65
2023/10/08 13:16:07;;;;;;;5.82;1.30;;;;;;;16.28;72.51;102645.56;10391467;28;20057;-65
2023/10/08 13:21:28;;;;;;;7.38;1.25;;;;;;;16.24;75.33;102643.94;10386740;28;20409;-65
2023/10/08 13:26:50;;;;;;;10.85;1.30;;;;;;;16.39;72.39;102664.44;10383879;28;20045;-65
2023/10/08 13:32:17;;;;;;;6.32;1.35;;;;;;;16.32;77.06;102644.59;10386716;28;20045;-65
2023/10/08 13:37:40;;;;;;;7.40;1.20;;;;;;;16.43;71.51;102646.94;10384703;28;20045;-65
2023/10/08 13:43:02;;;;;;;5.97;1.00;;;;;;;16.47;74.14;102646.84;10382527;28;20053;-65
2023/10/08 13:48:24;;;;;;;6.05;0.95;;;;;;;16.47;74.01;102620.72;10382499;28;20041;-65
2023/10/08 13:53:52;;;;;;;5.55;1.30;;;;;;;16.49;69.02;102629.38;10380289;28;20057;-65
2023/10/08 13:59:16;;;;;;;5.38;1.20;;;;;;;16.51;73.84;102635.44;10383827;28;20052;-65
2023/10/08 14:04:40;;;;;;;9.05;1.60;;;;;;;16.48;74.09;102630.25;10377773;28;20733;-65
2023/10/08 14:10:08;;;;;;;5.75;1.60;;;;;;;16.53;73.78;102646.72;10388946;28;20474;-65
2023/10/08 14:15:32;;;;;;;7.22;1.35;;;;;;;16.60;74.11;102652.63;10383891;28;20136;-65
2023/10/08 14:20:55;;;;;;;11.20;1.38;;;;;;;16.65;70.17;102646.38;10387970;28;20053;-65
2023/10/08 14:26:21;;;;;;;9.43;1.33;;;;;;;16.64;72.96;102633.34;10389948;28;20128;-65
2023/10/08 14:31:48;;;;;;;;;;;;;;;16.68;64.45;102625.38;10392619;28;20128;-65
2023/10/08 14:42:55;;;;;;;5.28;1.10;;;;;;;16.67;72.58;102628.91;10394653;28;20512;-64
2023/10/08 14:48:20;;;;;;;6.15;1.13;;;;;;;16.67;73.46;102609.75;10392837;28;20048;-65
2023/10/08 14:53:42;;;;;;;5.55;1.17;;;;;;;16.67;73.53;102592.31;10392133;28;20049;-64
2023/10/08 14:59:06;;;;;;;4.45;1.20;;;;;;;16.70;72.42;102597.44;10397133;28;20048;-64
2023/10/08 15:04:32;;;;;;;6.05;1.15;;;;;;;16.70;70.55;102589.59;10379726;28;20585;-64
2023/10/08 15:09:57;;;;;;;7.30;1.52;;;;;;;16.64;70.97;102589.78;10394080;28;20072;-64
2023/10/08 15:15:19;;;;;;;8.90;1.70;;;;;;;16.66;71.01;102569.69;10393606;28;20383;-64
2023/10/08 15:20:43;;;;;;;6.82;0.95;;;;;;;16.63;72.37;102569.75;10394479;28;20373;-64
2023/10/08 15:26:05;;;;;;;5.38;1.50;;;;;;;16.60;72.44;102553.28;10389570;28;20099;-64
2023/10/08 15:31:26;;;;;;;6.55;1.38;;;;;;;16.53;73.78;102542.16;10391103;28;20062;-65
2023/10/08 15:36:49;;;;;;;7.53;1.20;;;;;;;16.47;72.44;102550.16;10394390;28;20052;-64
2023/10/08 15:42:10;;;;;;;7.97;1.30;;;;;;;16.42;71.45;102551.16;10391973;28;20673;-65
2023/10/08 15:47:33;;;;;;;7.85;1.27;;;;;;;16.41;74.33;102531.16;10390013;28;20133;-64
2023/10/08 15:52:55;;;;;;;9.65;1.30;;;;;;;16.26;77.74;102521.94;10404426;28;20050;-64
2023/10/08 15:58:17;;;;;;;8.32;1.33;;;;;;;16.21;79.06;102549.94;10384646;28;20059;-64
2023/10/08 16:03:39;;;;;;;5.57;1.42;;;;;;;16.12;79.18;102529.28;10392489;28;20128;-64
2023/10/08 16:09:01;;;;;;;7.35;1.40;;;;;;;16.15;75.10;102505.72;10380542;28;20574;-65
2023/10/08 16:14:23;;;;;;;9.55;1.50;;;;;;;16.16;77.17;102517.00;10389372;28;20635;-65
2023/10/08 16:19:45;;;;;;;8.50;1.45;;;;;;;16.13;76.87;102527.53;10395854;28;20042;-64
2023/10/08 16:25:07;;;;;;;5.10;1.45;;;;;;;16.02;78.82;102522.59;10382911;28;20057;-64
2023/10/08 16:30:32;;;;;;;9.07;1.55;;;;;;;16.02;76.51;102517.38;10387572;28;20053;-64
2023/10/08 16:35:55;;;;;;;4.35;1.23;;;;;;;15.98;78.39;102493.09;10383925;28;20112;-64
2023/10/08 16:41:17;;;;;;;8.25;1.48;;;;;;;15.99;77.73;102471.28;10390082;28;20493;-64
2023/10/08 16:46:41;;;;;;;4.72;1.42;;;;;;;15.99;78.10;102491.31;10388005;28;20049;-65
2023/10/08 16:52:03;;;;;;;8.88;1.58;;;;;;;15.92;79.52;102500.19;10395058;28;20119;-64
2023/10/08 16:57:25;;;;;;;7.83;1.73;;;;;;;15.93;77.50;102522.81;10387595;28;20049;-64
2023/10/08 17:02:47;;;;;;;7.53;1.80;;;;;;;15.87;81.06;102504.69;10390188;28;20042;-64
2023/10/08 17:08:09;;;;;;;5.15;1.80;;;;;;;15.79;80.59;102502.25;10386567;28;20052;-64
2023/10/08 17:13:31;;;;;;;6.80;2.40;;;;;;;15.78;81.30;102489.25;10386056;28;20050;-65
2023/10/08 17:18:52;;;;;;;8.02;2.50;;;;;;;15.75;80.47;102471.03;10395875;28;20053;-65
2023/10/08 17:24:18;;;;;;;11.85;3.00;;;;;;;15.70;78.77;102465.94;10381265;28;20057;-65
2023/10/08 17:29:41;;;;;;;8.98;3.15;;;;;;;15.72;80.57;102471.13;10383621;28;20050;-65
2023/10/08 17:35:06;;;;;;;8.38;3.20;;;;;;;15.66;81.43;102481.72;10401905;28;20061;-65
2023/10/08 17:40:28;;;;;;;7.45;2.80;;;;;;;15.65;81.45;102498.28;10383288;28;20039;-65
2023/10/08 17:45:52;;;;;;;8.20;2.78;;;;;;;15.67;80.71;102494.75;10408511;28;20432;-65
2023/10/08 17:51:15;;;;;;;7.50;2.85;;;;;;;15.71;81.65;102472.03;10462327;28;20350;-65
2023/10/08 17:56:38;;;;;;;6.78;2.50;;;;;;;15.64;82.50;102452.19;10481020;28;20048;-65
2023/10/08 18:01:59;;;;;;;7.07;2.60;;;;;;;15.67;82.06;102462.56;10473645;28;20055;-65
2023/10/08 18:07:21;;;;;;;8.05;2.67;;;;;;;15.67;81.38;102467.78;10473617;28;20049;-65
2023/10/08 18:12:43;;;;;;;12.35;2.75;;;;;;;15.66;82.20;102463.44;10475031;28;20052;-65
2023/10/08 18:18:09;;;;;;;8.10;2.65;;;;;;;15.64;83.14;102441.75;10473955;28;20045;-65
2023/10/08 18:23:32;;;;;;;9.15;2.30;;;;;;;15.58;82.00;102421.91;10469967;28;20539;-65
2023/10/08 18:28:54;;;;;;;6.63;2.40;;;;;;;15.60;83.68;102430.50;10480777;28;20583;-65
2023/10/08 18:34:17;;;;;;;11.50;3.20;;;;;;;15.54;84.93;102403.72;10476541;28;20048;-65
2023/10/08 18:39:39;;;;;;;10.32;3.08;;;;;;;15.46;86.70;102411.75;10479179;28;20045;-65
2023/10/08 18:45:00;;;;;;;8.82;2.80;;;;;;;15.45;86.40;102406.56;10472300;28;20048;-65
2023/10/08 18:50:22;;;;;;;11.40;2.60;;;;;;;15.39;86.98;102393.63;10470894;28;20066;-65
2023/10/08 18:55:44;;;;;;;9.20;2.58;;;;;;;15.36;87.27;102383.28;10483798;28;20048;-65
2023/10/08 19:01:14;;;;;;;12.63;2.60;;;;;;;15.35;88.63;102377.19;10468097;28;20055;-65
2023/10/08 19:06:36;;;;;;;8.48;2.30;;;;;;;15.32;87.72;102373.81;10452475;28;20075;-65
2023/10/08 19:12:00;;;;;;;10.65;2.13;;;;;;;15.30;88.18;102384.28;10465360;28;20477;-65
2023/10/08 19:17:23;;;;;;;7.97;2.30;;;;;;;15.27;88.02;102393.94;10451260;28;20531;-65
2023/10/08 19:22:45;;;;;;;5.95;1.88;;;;;;;15.26;89.58;102369.59;10462647;28;20052;-65
2023/10/08 19:28:08;;;;;;;12.30;1.83;;;;;;;15.22;88.69;102361.91;10464389;28;20052;-65
2023/10/08 19:33:30;;;;;;;10.48;2.15;;;;;;;15.14;86.90;102362.94;10477428;28;20453;-65
2023/10/08 19:38:52;;;;;;;9.77;2.10;;;;;;;15.20;88.71;102366.31;10488740;28;20036;-65
2023/10/08 19:44:15;;;;;;;10.40;2.20;;;;;;;15.17;89.19;102314.19;10470283;28;20048;-65
2023/10/08 19:49:36;;;;;;;6.10;2.30;;;;;;;15.17;88.46;102295.94;10469323;28;20040;-65
2023/10/08 19:54:58;;;;;;;5.78;2.03;;;;;;;15.08;87.66;102274.44;10465775;28;20051;-65
2023/10/08 20:00:26;;;;;;;8.00;2.80;;;;;;;15.05;88.27;102274.50;10468779;28;20044;-66
2023/10/08 20:05:48;;;;;;;7.88;2.40;;;;;;;15.04;87.69;102280.63;10479589;28;20048;-66
2023/10/08 20:11:09;;;;;;;8.07;2.58;;;;;;;15.05;87.49;102266.69;10469426;28;20048;-65
2023/10/08 20:16:32;;;;;;;7.75;2.47;;;;;;;14.96;87.12;102258.25;10468570;28;20448;-65
2023/10/08 20:21:53;;;;;;;8.63;2.60;;;;;;;15.05;89.24;102265.84;10465874;28;20048;-66
2023/10/08 20:27:17;;;;;;;8.45;2.50;;;;;;;15.03;87.03;102259.81;10471179;28;20054;-65
2023/10/08 20:32:42;;;;;;;9.45;2.42;;;;;;;15.02;87.85;102253.72;10470789;28;20049;-65
2023/10/08 20:38:05;;;;;;;8.40;2.40;;;;;;;14.95;86.21;102231.31;10463157;28;20064;-65
2023/10/08 20:43:28;;;;;;;7.03;2.00;;;;;;;15.00;86.38;102237.28;10462302;28;20140;-65
2023/10/08 20:48:50;;;;;;;11.02;2.17;;;;;;;15.00;87.49;102216.41;10470281;28;20721;-65
2023/10/08 20:54:14;;;;;;;9.82;2.25;;;;;;;14.98;86.15;102233.84;10468293;28;20056;-65
2023/10/08 20:59:36;;;;;;;12.23;2.28;;;;;;;14.96;85.70;102221.75;10469632;28;20137;-65
2023/10/08 21:04:58;;;;;;;9.00;1.92;;;;;;;14.91;85.84;102208.84;10473573;28;20433;-65
2023/10/08 21:10:23;;;;;;;8.32;2.20;;;;;;;14.92;85.67;102200.09;10456458;28;20041;-65
2023/10/08 21:15:45;;;;;;;13.02;2.17;;;;;;;14.90;86.05;102201.94;10464344;28;20048;-65
2023/10/08 21:21:08;;;;;;;11.52;2.30;;;;;;;14.88;87.97;102188.06;10468586;28;20137;-65
2023/10/08 21:26:30;;;;;;;8.15;2.40;;;;;;;14.90;87.21;102204.53;10464530;28;20574;-65
2023/10/08 21:31:51;;;;;;;10.00;2.15;;;;;;;14.84;87.03;102204.69;10456100;28;20048;-65
2023/10/08 21:37:13;;;;;;;8.45;2.45;;;;;;;14.83;88.05;102210.75;10465984;28;20045;-65
2023/10/08 21:42:37;;;;;;;7.18;1.90;;;;;;;14.85;88.61;102188.13;10465791;28;20060;-65
2023/10/08 21:47:59;;;;;;;8.18;2.45;;;;;;;14.86;89.68;102184.66;10457154;28;20048;-65
2023/10/08 21:53:23;;;;;;;5.50;2.13;;;;;;;14.77;88.88;102173.59;10463179;28;20139;-65
2023/10/08 21:58:46;;;;;;;8.65;2.08;;;;;;;14.74;89.02;102169.31;10465050;28;20055;-65
2023/10/08 22:04:08;;;;;;;8.60;2.20;;;;;;;14.68;89.26;102166.88;10466198;28;20044;-65
2023/10/08 22:09:32;;;;;;;7.60;2.33;;;;;;;14.56;89.08;102169.78;10463457;28;20056;-65
2023/10/08 22:15:05;;;;;;;7.03;2.03;;;;;;;14.60;89.88;102180.97;10460784;28;20044;-65
2023/10/08 22:25:58;;;;;;;6.20;2.17;;;;;;;14.64;90.64;102133.09;10468210;28;20044;-65
2023/10/08 22:31:21;;;;;;;7.90;2.38;;;;;;;14.64;90.66;102140.94;10458281;28;20055;-65
2023/10/08 22:37:11;;;;;;;8.85;1.98;;;;;;;14.65;91.17;102127.84;10460669;28;20122;-65
2023/10/08 22:42:34;;;;;;;7.53;2.17;;;;;;;14.64;90.20;102110.53;10469174;28;20037;-65
2023/10/08 22:47:58;;;;;;;9.73;2.55;;;;;;;14.61;91.01;102105.41;10467099;28;20044;-65
2023/10/08 22:53:20;;;;;;;8.80;2.40;;;;;;;14.56;91.26;102075.16;10474777;28;20143;-65
2023/10/08 22:58:43;;;;;;;8.55;2.55;;;;;;;14.53;91.55;102078.69;10474145;28;20048;-65
2023/10/08 23:04:06;;;;;;;6.70;2.45;;;;;;;14.55;91.88;102063.00;10470050;28;20041;-65
2023/10/08 23:09:31;;;;;;;8.40;2.40;;;;;;;14.48;91.00;102041.50;10453357;28;20045;-64
2023/10/08 23:14:54;;;;;;;6.95;2.22;;;;;;;14.53;90.55;102029.19;10487292;28;20040;-65
2023/10/08 23:20:15;;;;;;;5.25;2.20;;;;;;;14.51;89.54;102011.88;10464194;28;20040;-65
2023/10/08 23:25:38;;;;;;;7.88;2.20;;;;;;;14.57;89.64;101999.56;10468087;28;20076;-65
2023/10/08 23:31:02;;;;;;;8.70;2.92;;;;;;;14.54;89.23;101996.19;10459619;28;20052;-65
2023/10/08 23:36:26;;;;;;;11.57;2.67;;;;;;;14.55;89.00;101996.16;10473740;28;20045;-65
2023/10/08 23:41:50;;;;;;;7.30;2.20;;;;;;;14.55;89.52;101995.28;10475076;28;20041;-64
2023/10/08 23:47:11;;;;;;;9.35;2.20;;;;;;;14.56;90.20;102008.25;10468814;28;20064;-65
2023/10/08 23:52:36;;;;;;;5.95;2.17;;;;;;;14.59;91.02;102023.81;10473172;28;20047;-65
2023/10/08 23:58:08;;;;;;;10.60;2.80;;;;;;;14.54;91.01;102025.69;10465553;28;20051;-65
